createdAt,value
2022-11-09T00:01:39.524Z,99771.19
2022-11-09T00:04:09.164Z,99771.84
2022-11-09T00:06:37.964Z,99766.94
2022-11-09T00:09:09.667Z,99774.72
2022-11-09T00:11:39.057Z,99777.66
2022-11-09T00:14:07.593Z,99779.09
2022-11-09T00:16:36.521Z,99786.72
2022-11-09T00:19:04.924Z,99779.31
2022-11-09T00:21:33.318Z,99781.81
2022-11-09T00:24:01.724Z,99778.06
2022-11-09T00:26:30.134Z,99785.09
2022-11-09T00:28:58.506Z,99786.75
2022-11-09T00:31:27.038Z,99788.78
2022-11-09T00:33:57.838Z,99787.16
2022-11-09T00:36:28.619Z,99776.44
2022-11-09T00:39:02.052Z,99779.94
2022-11-09T00:41:31.130Z,99770.06
2022-11-09T00:43:59.949Z,99772.13
2022-11-09T00:46:28.701Z,99775.00
2022-11-09T00:48:57.619Z,99777.03
2022-11-09T00:51:26.250Z,99785.28
2022-11-09T00:53:55.577Z,99791.63
2022-11-09T00:56:24.487Z,99786.28
2022-11-09T00:58:57.127Z,99800.88
2022-11-09T01:01:25.884Z,99792.84
2022-11-09T01:03:54.475Z,99785.03
2022-11-09T01:06:27.378Z,99780.69
2022-11-09T01:08:56.250Z,99771.88
2022-11-09T01:11:25.312Z,99771.66
2022-11-09T01:13:53.692Z,99772.50
2022-11-09T01:16:24.648Z,99773.09
2022-11-09T01:18:58.157Z,99772.91
2022-11-09T01:21:28.156Z,99768.59
2022-11-09T01:23:58.516Z,99766.13
2022-11-09T01:26:27.099Z,99770.44
2022-11-09T01:28:55.513Z,99771.25
2022-11-09T01:31:24.393Z,99763.06
2022-11-09T01:33:52.972Z,99758.31
2022-11-09T01:36:25.145Z,99749.06
2022-11-09T01:38:53.849Z,99757.75
2022-11-09T01:41:26.352Z,99761.03
2022-11-09T01:44:07.941Z,99751.78
2022-11-09T01:46:54.866Z,99761.28
2022-11-09T01:49:48.780Z,99753.88
2022-11-09T01:52:30.278Z,99755.94
2022-11-09T01:55:15.045Z,99751.41
2022-11-09T01:57:48.206Z,99750.81
2022-11-09T02:00:18.440Z,99754.31
2022-11-09T02:02:55.848Z,99752.06
2022-11-09T02:05:29.327Z,99750.22
2022-11-09T02:07:58.020Z,99748.34
2022-11-09T02:10:32.337Z,99734.97
2022-11-09T02:13:01.547Z,99744.66
2022-11-09T02:15:30.005Z,99745.47
2022-11-09T02:17:58.786Z,99741.97
2022-11-09T02:20:27.472Z,99746.31
2022-11-09T02:22:55.865Z,99743.63
2022-11-09T02:25:24.061Z,99734.56
2022-11-09T02:27:52.568Z,99729.22
2022-11-09T02:30:22.051Z,99717.91
2022-11-09T02:32:50.458Z,99719.75
2022-11-09T02:35:18.873Z,99725.94
2022-11-09T02:37:51.514Z,99729.06
2022-11-09T02:40:28.328Z,99729.91
2022-11-09T02:42:57.229Z,99727.00
2022-11-09T02:45:25.681Z,99710.16
2022-11-09T02:47:54.177Z,99715.69
2022-11-09T02:50:22.519Z,99718.38
2022-11-09T02:52:50.899Z,99707.88
2022-11-09T02:55:19.679Z,99702.75
2022-11-09T02:57:48.046Z,99698.22
2022-11-09T03:00:16.872Z,99696.38
2022-11-09T03:02:45.287Z,99683.41
2022-11-09T03:05:13.880Z,99686.28
2022-11-09T03:07:42.250Z,99680.06
2022-11-09T03:10:11.000Z,99684.59
2022-11-09T03:12:39.395Z,99694.31
2022-11-09T03:15:09.905Z,99687.28
2022-11-09T03:17:38.545Z,99705.97
2022-11-09T03:20:07.337Z,99704.13
2022-11-09T03:22:35.680Z,99702.31
2022-11-09T03:25:04.145Z,99701.47
2022-11-09T03:27:32.787Z,99711.19
2022-11-09T03:30:01.094Z,99706.66
2022-11-09T03:32:29.421Z,99716.53
2022-11-09T03:34:57.890Z,99713.03
2022-11-09T03:37:26.627Z,99713.19
2022-11-09T03:39:55.203Z,99714.00
2022-11-09T03:42:23.612Z,99714.69
2022-11-09T03:44:51.994Z,99715.28
2022-11-09T03:47:20.520Z,99711.19
2022-11-09T03:49:48.988Z,99717.97
2022-11-09T03:52:17.616Z,99706.44
2022-11-09T03:54:45.998Z,99709.94
2022-11-09T03:57:14.323Z,99701.91
2022-11-09T03:59:42.659Z,99700.25
2022-11-09T04:02:11.084Z,99702.31
2022-11-09T04:04:39.572Z,99697.34
2022-11-09T04:07:08.115Z,99690.56
2022-11-09T04:09:36.512Z,99701.84
2022-11-09T04:12:05.595Z,99695.91
2022-11-09T04:14:33.963Z,99698.56
2022-11-09T04:17:02.300Z,99697.94
2022-11-09T04:19:30.807Z,99710.47
2022-11-09T04:21:59.105Z,99717.25
2022-11-09T04:24:27.595Z,99723.81
2022-11-09T04:26:55.980Z,99725.44
2022-11-09T04:29:24.616Z,99736.34
2022-11-09T04:31:53.366Z,99743.31
2022-11-09T04:34:21.737Z,99736.94
2022-11-09T04:36:50.228Z,99736.75
2022-11-09T04:39:18.564Z,99735.53
2022-11-09T04:41:46.899Z,99736.16
2022-11-09T04:44:15.255Z,99744.81
2022-11-09T04:46:43.832Z,99749.94
2022-11-09T04:49:12.177Z,99752.59
2022-11-09T04:51:40.490Z,99751.78
2022-11-09T04:54:08.915Z,99745.81
2022-11-09T04:56:37.281Z,99751.56
2022-11-09T04:59:05.739Z,99739.63
2022-11-09T05:01:34.183Z,99736.53
2022-11-09T05:04:02.523Z,99749.44
2022-11-09T05:06:33.703Z,99734.03
2022-11-09T05:09:10.705Z,99735.44
2022-11-09T05:11:39.303Z,99727.84
2022-11-09T05:14:07.968Z,99746.09
2022-11-09T05:16:36.294Z,99732.91
2022-11-09T05:19:04.938Z,99747.31
2022-11-09T05:21:33.313Z,99746.88
2022-11-09T05:24:00.916Z,99744.59
2022-11-09T05:26:38.976Z,99742.09
2022-11-09T05:29:13.153Z,99735.13
2022-11-09T05:31:45.445Z,99738.81
2022-11-09T05:34:15.257Z,99749.69
2022-11-09T05:36:43.574Z,99746.84
2022-11-09T05:39:12.073Z,99751.16
2022-11-09T05:41:40.426Z,99750.13
2022-11-09T05:44:08.409Z,99753.44
2022-11-09T05:46:36.859Z,99748.28
2022-11-09T05:49:05.567Z,99750.13
2022-11-09T05:51:34.315Z,99755.03
2022-11-09T05:54:02.787Z,99748.84
2022-11-09T05:59:11.038Z,99738.78
2022-11-09T06:01:39.518Z,99738.97
2022-11-09T06:04:08.014Z,99738.34
2022-11-09T06:06:36.567Z,99733.84
2022-11-09T06:09:04.659Z,99740.81
2022-11-09T06:11:33.046Z,99737.13
2022-11-09T06:14:01.407Z,99739.78
2022-11-09T06:16:29.802Z,99736.72
2022-11-09T06:18:58.500Z,99725.03
2022-11-09T06:21:26.870Z,99729.97
2022-11-09T06:23:55.207Z,99731.00
2022-11-09T06:26:23.592Z,99724.81
2022-11-09T06:28:51.943Z,99716.44
2022-11-09T06:31:20.973Z,99709.66
2022-11-09T06:33:49.370Z,99716.25
2022-11-09T06:36:17.728Z,99705.19
2022-11-09T06:38:46.171Z,99721.63
2022-11-09T06:41:14.577Z,99721.44
2022-11-09T06:43:42.968Z,99722.88
2022-11-09T06:46:12.173Z,99715.50
2022-11-09T06:48:40.924Z,99736.47
2022-11-09T06:51:09.316Z,99736.47
2022-11-09T06:53:38.640Z,99736.47
2022-11-09T06:56:07.524Z,99751.88
2022-11-09T06:58:36.367Z,99754.56
2022-11-09T07:01:17.912Z,99755.56
2022-11-09T07:03:46.612Z,99753.50
2022-11-09T07:06:15.580Z,99749.34
2022-11-09T07:08:43.942Z,99768.28
2022-11-09T07:11:16.243Z,99762.09
2022-11-09T07:13:44.645Z,99763.13
2022-11-09T07:16:17.126Z,99768.03
2022-11-09T07:18:46.686Z,99760.00
2022-11-09T07:21:15.468Z,99760.22
2022-11-09T07:23:49.401Z,99774.81
2022-11-09T07:26:18.431Z,99777.47
2022-11-09T07:28:46.856Z,99776.22
2022-11-09T07:31:15.261Z,99780.69
2022-11-09T07:33:43.660Z,99764.84
2022-11-09T07:36:14.624Z,99754.38
2022-11-09T07:38:46.720Z,99755.59
2022-11-09T07:41:15.084Z,99758.44
2022-11-09T07:43:43.470Z,99758.44
2022-11-09T07:46:11.776Z,99761.94
2022-11-09T07:48:40.157Z,99754.16
2022-11-09T07:51:08.651Z,99756.81
2022-11-09T07:53:40.751Z,99764.63
2022-11-09T07:56:09.351Z,99770.78
2022-11-09T07:58:37.775Z,99768.28
2022-11-09T08:01:12.962Z,99772.63
2022-11-09T08:03:41.381Z,99773.63
2022-11-09T08:06:13.076Z,99774.28
2022-11-09T08:08:44.113Z,99775.13
2022-11-09T08:11:12.631Z,99782.09
2022-11-09T08:13:43.952Z,99787.03
2022-11-09T08:16:12.677Z,99787.47
2022-11-09T08:18:41.206Z,99786.88
2022-11-09T08:21:09.282Z,99785.88
2022-11-09T08:23:40.003Z,99795.34
2022-11-09T08:26:08.740Z,99787.94
2022-11-09T08:28:37.191Z,99792.28
2022-11-09T08:31:08.779Z,99803.97
2022-11-09T08:33:41.642Z,99805.81
2022-11-09T08:36:12.606Z,99812.19
2022-11-09T08:38:46.616Z,99828.66
2022-11-09T08:41:15.674Z,99831.13
2022-11-09T08:43:43.958Z,99832.56
2022-11-09T08:46:12.635Z,99832.00
2022-11-09T08:48:41.096Z,99828.72
2022-11-09T08:51:09.097Z,99845.00
2022-11-09T08:53:37.506Z,99832.91
2022-11-09T08:56:08.565Z,99826.13
2022-11-09T08:58:37.297Z,99836.03
2022-11-09T09:01:16.688Z,99837.94
2022-11-09T09:03:46.784Z,99837.13
2022-11-09T09:06:15.116Z,99832.22
2022-11-09T09:08:43.642Z,99830.38
2022-11-09T09:11:12.019Z,99834.88
2022-11-09T09:13:43.361Z,99829.09
2022-11-09T09:16:17.276Z,99833.63
2022-11-09T09:18:45.651Z,99820.84
2022-11-09T09:21:14.065Z,99820.66
2022-11-09T09:23:42.506Z,99821.91
2022-11-09T09:26:10.908Z,99823.78
2022-11-09T09:28:39.289Z,99830.81
2022-11-09T09:31:08.257Z,99816.84
2022-11-09T09:33:36.767Z,99822.66
2022-11-09T09:36:05.262Z,99822.69
2022-11-09T09:38:34.064Z,99816.53
2022-11-09T09:41:05.283Z,99814.28
2022-11-09T09:43:43.849Z,99808.53
2022-11-09T09:46:36.719Z,99821.31
2022-11-09T09:49:18.516Z,99826.66
2022-11-09T09:51:58.386Z,99830.41
2022-11-09T09:54:36.974Z,99827.13
2022-11-09T09:57:05.462Z,99831.03
2022-11-09T09:59:45.883Z,99824.66
2022-11-09T10:02:27.044Z,99813.56
2022-11-09T10:04:59.212Z,99815.81
2022-11-09T10:07:40.217Z,99819.13
2022-11-09T10:10:26.269Z,99818.31
2022-11-09T10:13:23.453Z,99806.78
2022-11-09T10:16:05.146Z,99803.69
2022-11-09T10:19:22.832Z,99810.47
2022-11-09T10:22:18.413Z,99812.31
2022-11-09T10:28:13.132Z,99807.78
2022-11-09T10:30:42.137Z,99793.16
2022-11-09T10:33:21.410Z,99795.84
2022-11-09T10:36:33.078Z,99802.25
2022-11-09T10:39:02.626Z,99811.91
2022-11-09T10:41:39.146Z,99816.84
2022-11-09T10:44:13.469Z,99811.28
2022-11-09T10:47:08.648Z,99806.34
2022-11-09T10:49:37.976Z,99795.00
2022-11-09T10:52:11.028Z,99797.50
2022-11-09T10:54:39.515Z,99790.69
2022-11-09T10:57:25.741Z,99786.09
2022-11-09T10:59:59.363Z,99787.97
2022-11-09T11:02:28.984Z,99794.09
2022-11-09T11:05:08.862Z,99804.41
2022-11-09T11:07:37.577Z,99791.63
2022-11-09T11:10:17.288Z,99800.25
2022-11-09T11:12:48.263Z,99792.84
2022-11-09T11:15:29.677Z,99791.78
2022-11-09T11:18:30.325Z,99794.88
2022-11-09T11:21:18.645Z,99793.22
2022-11-09T11:24:21.402Z,99800.22
2022-11-09T11:27:10.377Z,99793.81
2022-11-09T11:30:01.607Z,99800.63
2022-11-09T11:32:29.989Z,99802.47
2022-11-09T11:35:00.614Z,99799.59
2022-11-09T11:38:02.116Z,99798.75
2022-11-09T11:40:57.442Z,99796.09
2022-11-09T11:43:36.928Z,99799.78
2022-11-09T11:46:44.322Z,99808.25
2022-11-09T11:50:15.106Z,99797.53
2022-11-09T11:52:57.124Z,99795.47
2022-11-09T11:55:41.796Z,99801.44
2022-11-09T11:58:20.093Z,99800.19
2022-11-09T12:01:01.743Z,99797.06
2022-11-09T12:04:04.660Z,99810.47
2022-11-09T12:06:47.364Z,99808.81
2022-11-09T12:09:40.579Z,99811.25
2022-11-09T12:12:28.885Z,99799.50
2022-11-09T12:15:35.286Z,99791.66
2022-11-09T12:18:13.193Z,99796.81
2022-11-09T12:20:56.880Z,99790.41
2022-11-09T12:23:25.403Z,99785.66
2022-11-09T12:26:33.835Z,99789.16
2022-11-09T12:29:12.190Z,99777.81
2022-11-09T12:32:33.559Z,99787.72
2022-11-09T12:35:18.967Z,99789.59
2022-11-09T12:38:16.086Z,99782.56
2022-11-09T12:41:05.370Z,99775.56
2022-11-09T12:43:57.436Z,99781.75
2022-11-09T12:46:35.402Z,99770.19
2022-11-09T12:49:06.033Z,99766.09
2022-11-09T12:51:35.369Z,99763.78
2022-11-09T12:54:11.793Z,99768.94
2022-11-09T12:56:58.982Z,99768.13
2022-11-09T12:59:30.076Z,99765.44
2022-11-09T13:02:01.038Z,99763.78
2022-11-09T13:04:29.725Z,99752.25
2022-11-09T13:07:41.246Z,99759.69
2022-11-09T13:10:28.527Z,99763.19
2022-11-09T13:13:15.168Z,99754.53
2022-11-09T13:16:12.632Z,99763.19
2022-11-09T13:18:45.620Z,99761.13
2022-11-09T13:21:23.612Z,99757.81
2022-11-09T13:24:02.643Z,99759.00
2022-11-09T13:26:32.871Z,99756.94
2022-11-09T13:29:16.195Z,99760.81
2022-11-09T13:32:14.189Z,99770.91
2022-11-09T13:35:00.169Z,99777.69
2022-11-09T13:37:43.788Z,99780.19
2022-11-09T13:40:33.452Z,99788.22
2022-11-09T13:43:23.172Z,99789.84
2022-11-09T13:46:22.769Z,99796.06
2022-11-09T13:48:55.354Z,99798.31
2022-11-09T13:51:46.520Z,99794.59
2022-11-09T13:54:45.272Z,99787.38
2022-11-09T13:57:13.829Z,99799.75
2022-11-09T13:59:50.619Z,99792.53
2022-11-09T14:02:25.143Z,99794.19
2022-11-09T14:04:54.208Z,99796.25
2022-11-09T14:07:29.139Z,99805.13
2022-11-09T14:10:16.262Z,99804.28
2022-11-09T14:13:35.671Z,99797.28
2022-11-09T14:16:27.703Z,99810.09
2022-11-09T14:19:57.525Z,99814.25
2022-11-09T14:22:25.988Z,99822.50
2022-11-09T14:24:54.439Z,99816.31
2022-11-09T14:27:24.183Z,99821.69
2022-11-09T14:29:56.401Z,99818.38
2022-11-09T14:32:35.690Z,99816.97
2022-11-09T14:35:31.375Z,99818.22
2022-11-09T14:38:02.408Z,99826.69
2022-11-09T14:40:34.933Z,99830.00
2022-11-09T14:43:04.835Z,99829.63
2022-11-09T14:45:33.427Z,99823.66
2022-11-09T14:48:02.273Z,99829.44
2022-11-09T14:50:38.673Z,99838.94
2022-11-09T14:53:07.320Z,99835.66
2022-11-09T14:55:39.852Z,99835.03
2022-11-09T14:58:10.910Z,99835.03
2022-11-09T15:00:43.281Z,99830.91
2022-11-09T15:03:31.614Z,99837.53
2022-11-09T15:06:14.133Z,99837.97
2022-11-09T15:08:59.624Z,99834.66
2022-11-09T15:11:42.439Z,99835.06
2022-11-09T15:14:30.399Z,99830.53
2022-11-09T15:17:09.487Z,99834.25
2022-11-09T15:20:05.848Z,99832.63
2022-11-09T15:22:56.202Z,99843.56
2022-11-09T15:25:42.540Z,99840.47
2022-11-09T15:28:13.575Z,99836.34
2022-11-09T15:31:16.780Z,99832.44
2022-11-09T15:33:52.252Z,99838.84
2022-11-09T15:36:55.436Z,99834.13
2022-11-09T15:39:25.223Z,99829.19
2022-11-09T15:41:53.657Z,99832.28
2022-11-09T15:44:22.380Z,99845.28
2022-11-09T15:46:54.346Z,99843.00
2022-11-09T15:49:26.970Z,99844.25
2022-11-09T15:51:56.061Z,99843.63
2022-11-09T15:54:25.503Z,99848.59
2022-11-09T15:56:54.041Z,99855.19
2022-11-09T15:59:28.190Z,99855.59
2022-11-09T16:01:56.648Z,99855.81
2022-11-09T16:04:25.176Z,99858.91
2022-11-09T16:06:53.644Z,99866.13
2022-11-09T16:09:22.215Z,99862.22
2022-11-09T16:11:51.056Z,99864.06
2022-11-09T16:14:22.098Z,99863.47
2022-11-09T16:16:50.632Z,99853.16
2022-11-09T16:19:19.146Z,99856.84
2022-11-09T16:21:47.587Z,99859.09
2022-11-09T16:24:18.008Z,99867.56
2022-11-09T16:26:46.628Z,99865.28
2022-11-09T16:29:15.250Z,99872.91
2022-11-09T16:31:52.429Z,99869.59
2022-11-09T16:34:21.502Z,99879.28
2022-11-09T16:36:56.442Z,99879.91
2022-11-09T16:39:27.405Z,99887.13
2022-11-09T16:41:56.701Z,99881.53
2022-11-09T16:44:25.730Z,99888.53
2022-11-09T16:46:54.208Z,99892.44
2022-11-09T16:49:22.682Z,99896.97
2022-11-09T16:51:51.221Z,99898.00
2022-11-09T16:54:19.742Z,99892.03
2022-11-09T16:56:48.559Z,99895.53
2022-11-09T16:59:17.574Z,99889.97
2022-11-09T17:01:58.527Z,99892.84
2022-11-09T17:04:27.446Z,99904.41
2022-11-09T17:06:55.983Z,99909.94
2022-11-09T17:09:24.526Z,99902.94
2022-11-09T17:11:52.579Z,99913.84
2022-11-09T17:14:21.060Z,99911.38
2022-11-09T17:16:49.772Z,99916.94
2022-11-09T17:19:18.306Z,99911.16
2022-11-09T17:21:46.900Z,99916.91
2022-11-09T17:24:15.774Z,99902.72
2022-11-09T17:26:44.478Z,99908.06
2022-11-09T17:29:15.030Z,99927.81
2022-11-09T17:31:43.586Z,99919.59
2022-11-09T17:34:12.428Z,99917.09
2022-11-09T17:37:02.877Z,99925.34
2022-11-09T17:39:29.656Z,99929.88
2022-11-09T17:41:57.741Z,99923.69
2022-11-09T17:44:26.192Z,99923.09
2022-11-09T17:46:54.693Z,99924.94
2022-11-09T17:49:23.116Z,99931.50
2022-11-09T17:51:51.528Z,99931.28
2022-11-09T17:54:20.062Z,99929.63
2022-11-09T17:56:48.564Z,99937.88
2022-11-09T17:59:16.986Z,99941.38
2022-11-09T18:01:45.398Z,99936.66
2022-11-09T18:04:13.879Z,99934.19
2022-11-09T18:06:42.318Z,99940.75
2022-11-09T18:09:39.817Z,99941.56
2022-11-09T18:12:05.130Z,99951.25
2022-11-09T18:14:33.778Z,99956.63
2022-11-09T18:17:02.328Z,99953.13
2022-11-09T18:19:30.818Z,99959.06
2022-11-09T18:22:02.678Z,99962.59
2022-11-09T18:24:31.884Z,99967.94
2022-11-09T18:27:01.037Z,99967.94
2022-11-09T18:29:29.597Z,99971.44
2022-11-09T18:31:58.084Z,99966.91
2022-11-09T18:34:26.495Z,99966.91
2022-11-09T18:36:55.190Z,99970.63
2022-11-09T18:39:26.304Z,99967.75
2022-11-09T18:41:56.970Z,99969.38
2022-11-09T18:44:25.367Z,99977.22
2022-11-09T18:46:53.838Z,99969.19
2022-11-09T18:49:22.524Z,99986.09
2022-11-09T18:51:50.640Z,99984.25
2022-11-09T18:54:18.837Z,99984.84
2022-11-09T18:56:47.763Z,99975.16
2022-11-09T18:59:16.573Z,99982.38
2022-11-09T19:01:45.425Z,99994.72
2022-11-09T19:04:17.989Z,99990.41
2022-11-09T19:06:47.014Z,99990.41
2022-11-09T19:09:35.685Z,99990.41
2022-11-09T19:12:09.116Z,99996.56
2022-11-09T19:14:41.094Z,99989.59
2022-11-09T19:17:17.780Z,99994.94
2022-11-09T19:19:46.350Z,99993.91
2022-11-09T19:22:19.059Z,99991.22
2022-11-09T19:24:48.000Z,100003.59
2022-11-09T19:27:16.724Z,100004.59
2022-11-09T19:29:45.323Z,100016.16
2022-11-09T19:32:13.798Z,100025.22
2022-11-09T19:34:42.840Z,100031.78
2022-11-09T19:37:11.696Z,100030.13
2022-11-09T19:39:43.259Z,100032.38
2022-11-09T19:42:11.961Z,100038.56
2022-11-09T19:44:40.614Z,100035.25
2022-11-09T19:47:09.348Z,100033.63
2022-11-09T19:49:37.954Z,100043.50
2022-11-09T19:52:06.439Z,100039.16
2022-11-09T19:54:34.998Z,100042.66
2022-11-09T19:57:03.473Z,100042.66
2022-11-09T19:59:31.888Z,100053.38
2022-11-09T20:02:00.432Z,100056.88
2022-11-09T20:04:29.353Z,100058.50
2022-11-09T20:06:57.867Z,100060.38
2022-11-09T20:09:26.621Z,100061.19
2022-11-09T20:12:12.326Z,100061.19
2022-11-09T20:14:40.703Z,100057.69
2022-11-09T20:17:09.318Z,100063.84
2022-11-09T20:19:37.900Z,100061.81
2022-11-09T20:22:06.799Z,100067.38
2022-11-09T20:24:35.452Z,100074.38
2022-11-09T20:27:03.906Z,100072.72
2022-11-09T20:29:32.512Z,100077.44
2022-11-09T20:32:00.885Z,100071.44
2022-11-09T20:34:31.235Z,100071.44
2022-11-09T20:36:59.766Z,100078.84
2022-11-09T20:39:27.875Z,100075.56
2022-11-09T20:41:56.371Z,100083.78
2022-11-09T20:44:27.497Z,100076.97
2022-11-09T20:46:56.803Z,100083.34
2022-11-09T20:49:25.552Z,100082.72
2022-11-09T20:51:54.011Z,100088.06
2022-11-09T20:54:22.625Z,100085.78
2022-11-09T20:56:51.083Z,100085.78
2022-11-09T20:59:19.595Z,100087.63
2022-11-09T21:01:48.683Z,100081.66
2022-11-09T21:04:17.525Z,100088.03
2022-11-09T21:06:45.984Z,100088.22
2022-11-09T21:09:14.644Z,100091.94
2022-11-09T21:11:57.389Z,100092.09
2022-11-09T21:14:25.536Z,100084.28
2022-11-09T21:16:54.197Z,100091.50
2022-11-09T21:19:22.629Z,100096.00
2022-11-09T21:21:51.808Z,100104.84
2022-11-09T21:24:37.491Z,100106.72
2022-11-09T21:27:23.591Z,100116.56
2022-11-09T21:29:52.072Z,100109.56
2022-11-09T21:32:22.915Z,100125.81
2022-11-09T21:34:52.374Z,100138.53
2022-11-09T21:37:20.830Z,100131.69
2022-11-09T21:39:49.402Z,100136.19
2022-11-09T21:42:17.941Z,100144.44
2022-11-09T21:44:46.454Z,100148.31
2022-11-09T21:47:15.011Z,100149.13
2022-11-09T21:49:43.726Z,100162.72
2022-11-09T21:52:12.274Z,100159.41
2022-11-09T21:54:40.682Z,100148.88
2022-11-09T21:57:09.443Z,100144.53
2022-11-09T21:59:37.844Z,100148.88
2022-11-09T22:02:06.347Z,100156.66
2022-11-09T22:04:34.775Z,100155.47
2022-11-09T22:07:03.401Z,100173.56
2022-11-09T22:09:50.449Z,100177.06
2022-11-09T22:12:37.635Z,100184.25
2022-11-09T22:15:23.534Z,100187.38
2022-11-09T22:17:55.128Z,100188.22
2022-11-09T22:20:41.484Z,100189.03
2022-11-09T22:23:10.442Z,100196.03
2022-11-09T22:25:40.737Z,100198.91
2022-11-09T22:28:12.055Z,100187.19
2022-11-09T22:30:40.494Z,100194.41
2022-11-09T22:33:08.640Z,100186.56
2022-11-09T22:35:37.063Z,100192.72
2022-11-09T22:38:05.662Z,100192.06
2022-11-09T22:40:34.316Z,100194.94
2022-11-09T22:43:02.923Z,100200.47
2022-11-09T22:45:31.010Z,100200.69
2022-11-09T22:48:00.600Z,100204.34
2022-11-09T22:50:28.821Z,100207.41
2022-11-09T22:53:03.756Z,100213.75
2022-11-09T22:55:32.651Z,100213.34
2022-11-09T22:58:01.610Z,100218.88
2022-11-09T23:00:30.214Z,100224.03
2022-11-09T23:02:58.885Z,100220.53
2022-11-09T23:05:27.345Z,100225.88
2022-11-09T23:07:57.455Z,100234.06
2022-11-09T23:10:25.599Z,100233.22
2022-11-09T23:12:54.091Z,100235.28
2022-11-09T23:15:22.184Z,100242.28
2022-11-09T23:18:14.609Z,100246.59
2022-11-09T23:20:43.952Z,100246.59
2022-11-09T23:23:12.571Z,100251.78
2022-11-09T23:25:57.076Z,100253.63
2022-11-09T23:28:25.979Z,100263.28
2022-11-09T23:30:54.441Z,100258.13
2022-11-09T23:33:22.624Z,100260.78
2022-11-09T23:35:51.173Z,100260.78
2022-11-09T23:38:19.629Z,100263.47
2022-11-09T23:40:48.358Z,100265.31
2022-11-09T23:43:17.354Z,100262.63
2022-11-09T23:45:46.395Z,100268.19
2022-11-09T23:48:18.568Z,100264.84
2022-11-09T23:50:49.216Z,100262.38
2022-11-09T23:53:17.721Z,100263.22
2022-11-09T23:55:46.409Z,100267.25
2022-11-09T23:58:15.129Z,100273.63
